Satu Mare, Romania
Current Conditions -  °F | °C
As of 6:30 AM on Tuesday 21 Oct 2014 (Local Time) from LRSM Reporting Station
Rain Showers Rain Showers  
Wind Chill: 57°   Ceiling: 3000
Heat Index: 57°   Visibility: 3mi
Dew Point: 57°   Wind: 5mph
Humidity: 100%   Direction: 230°SW
Pressure: 29.88"   Gusts: NA
Location:  47.79°N, 22.89°E
Report Text: LRSM 210330Z AUTO 23004KT 5000 -SHRA BKN030 14/14 Q1012
Loading
Personal Weather Stations






























Interactive Weather Map
Tropical Storm Tracking
New forecast layout! Learn more

10-Day Weather Forecast

Advertisements
Track Severe Weather on mobile